createdAt,value
2019-04-30T00:01:58.476Z,42.03
2019-04-30T00:06:59.740Z,42.23
2019-04-30T00:12:03.182Z,40.97
2019-04-30T00:17:10.678Z,34.90
2019-04-30T00:22:11.868Z,35.77
2019-04-30T00:27:15.270Z,37.27
2019-04-30T00:32:18.677Z,32.87
2019-04-30T00:37:22.077Z,35.27
2019-04-30T00:42:28.830Z,33.80
2019-04-30T00:47:30.636Z,37.13
2019-04-30T00:52:36.922Z,38.40
2019-04-30T00:57:43.747Z,39.37
2019-04-30T01:02:49.866Z,40.73
2019-04-30T01:07:55.010Z,34.83
2019-04-30T01:13:01.833Z,40.37
2019-04-30T01:18:03.800Z,41.07
2019-04-30T01:23:11.090Z,42.13
2019-04-30T01:28:16.485Z,38.50
2019-04-30T01:33:19.174Z,38.13
2019-04-30T01:38:22.720Z,33.70
2019-04-30T01:43:31.436Z,32.23
2019-04-30T01:48:31.274Z,33.90
2019-04-30T01:53:35.645Z,37.30
2019-04-30T01:58:40.693Z,43.00
2019-04-30T02:03:44.097Z,39.83
2019-04-30T02:08:49.273Z,40.03
2019-04-30T02:13:52.810Z,33.73
2019-04-30T02:18:56.223Z,31.40
2019-04-30T02:23:59.626Z,34.20
2019-04-30T02:29:03.036Z,36.30
2019-04-30T02:34:10.183Z,37.60
2019-04-30T02:39:13.313Z,35.10
2019-04-30T02:44:19.584Z,37.20
2019-04-30T02:49:23.805Z,39.60
2019-04-30T02:54:29.927Z,36.47
2019-04-30T02:59:33.355Z,38.57
2019-04-30T03:04:39.365Z,31.27
2019-04-30T03:09:41.925Z,34.00
2019-04-30T03:14:45.465Z,30.63
2019-04-30T03:19:50.542Z,35.00
2019-04-30T03:24:54.004Z,34.17
2019-04-30T03:29:59.959Z,33.17
2019-04-30T03:35:03.386Z,29.70
2019-04-30T03:40:13.258Z,32.03
2019-04-30T03:45:15.896Z,33.00
2019-04-30T03:50:19.950Z,30.40
2019-04-30T03:55:24.954Z,33.63
2019-04-30T04:00:46.792Z,36.87
2019-04-30T04:05:51.893Z,34.60
2019-04-30T04:10:56.974Z,32.97
2019-04-30T04:16:00.521Z,33.80
2019-04-30T04:21:11.692Z,35.03
2019-04-30T04:26:09.538Z,33.13
2019-04-30T04:31:14.370Z,42.23
2019-04-30T04:36:19.842Z,39.53
2019-04-30T04:41:22.931Z,32.63
2019-04-30T04:46:26.387Z,35.37
2019-04-30T04:51:38.164Z,40.00
2019-04-30T04:56:34.959Z,33.67
2019-04-30T05:01:38.833Z,44.27
2019-04-30T05:06:42.382Z,37.50
2019-04-30T05:11:45.782Z,39.10
2019-04-30T05:16:49.210Z,38.77
2019-04-30T05:21:52.657Z,42.73
2019-04-30T05:26:56.089Z,37.27
2019-04-30T05:31:59.499Z,45.37
2019-04-30T05:37:02.915Z,41.53
2019-04-30T05:42:06.471Z,38.83
2019-04-30T05:47:09.886Z,47.13
2019-04-30T05:52:13.302Z,40.47
2019-04-30T05:57:16.717Z,38.87
2019-04-30T06:02:20.137Z,47.60
2019-04-30T06:07:23.553Z,35.77
2019-04-30T06:12:31.414Z,43.37
2019-04-30T06:17:36.475Z,41.80
2019-04-30T06:22:40.632Z,44.97
2019-04-30T06:27:44.421Z,41.67
2019-04-30T06:32:49.627Z,43.43
2019-04-30T06:37:53.163Z,36.97
2019-04-30T06:43:00.393Z,43.50
2019-04-30T06:48:04.342Z,41.30
2019-04-30T06:53:09.292Z,42.83
2019-04-30T06:58:15.587Z,47.50
2019-04-30T07:03:19.170Z,46.37
2019-04-30T07:08:42.483Z,44.70
2019-04-30T07:13:45.996Z,47.47
2019-04-30T07:18:49.464Z,46.50
2019-04-30T07:23:53.039Z,41.37
2019-04-30T07:28:56.458Z,38.70
2019-04-30T07:33:59.949Z,43.23
2019-04-30T07:39:05.832Z,37.67
2019-04-30T07:44:10.990Z,38.43
2019-04-30T07:49:14.486Z,38.70
2019-04-30T07:54:18.981Z,34.10
2019-04-30T07:59:22.858Z,38.07
2019-04-30T08:04:29.258Z,32.73
2019-04-30T08:09:39.072Z,35.10
2019-04-30T08:14:39.097Z,32.27
2019-04-30T08:19:42.620Z,37.10
2019-04-30T08:24:46.102Z,34.23
2019-04-30T08:29:50.142Z,35.47
2019-04-30T08:34:53.577Z,30.17
2019-04-30T08:39:57.076Z,33.20
2019-04-30T08:45:00.487Z,26.97
2019-04-30T08:50:05.365Z,29.97
2019-04-30T08:55:16.237Z,27.90
2019-04-30T09:00:15.125Z,26.47
2019-04-30T09:05:20.584Z,29.33
2019-04-30T09:10:24.030Z,28.67
2019-04-30T09:15:29.040Z,28.10
2019-04-30T09:20:32.634Z,20.00
2019-04-30T09:25:36.396Z,25.27
2019-04-30T09:30:39.799Z,27.07
2019-04-30T09:35:43.411Z,27.03
2019-04-30T09:40:46.940Z,24.03
2019-04-30T09:45:50.371Z,24.57
2019-04-30T09:50:54.088Z,27.70
2019-04-30T09:55:59.554Z,21.77
2019-04-30T10:01:02.907Z,21.43
2019-04-30T10:06:06.403Z,24.27
2019-04-30T10:11:20.302Z,21.57
2019-04-30T10:16:40.374Z,21.60
2019-04-30T10:21:44.107Z,21.50
2019-04-30T10:26:47.606Z,20.80
2019-04-30T10:31:51.503Z,20.77
2019-04-30T10:36:54.933Z,25.47
2019-04-30T10:41:58.404Z,21.20
2019-04-30T10:47:01.869Z,23.27
2019-04-30T10:52:05.406Z,24.37
2019-04-30T10:57:09.180Z,21.73
2019-04-30T11:02:12.704Z,19.87
2019-04-30T11:07:16.257Z,21.07
2019-04-30T11:12:19.843Z,22.70
2019-04-30T11:17:23.567Z,19.23
2019-04-30T11:22:27.317Z,20.17
2019-04-30T11:27:31.494Z,21.47
2019-04-30T11:32:35.517Z,20.17
2019-04-30T11:37:39.073Z,17.17
2019-04-30T11:42:42.571Z,20.50
2019-04-30T11:47:53.270Z,20.27
2019-04-30T11:52:51.139Z,21.50
2019-04-30T11:57:54.607Z,16.70
2019-04-30T12:02:59.351Z,19.37
2019-04-30T12:08:04.513Z,18.87
2019-04-30T12:13:09.666Z,18.43
2019-04-30T12:18:13.047Z,18.27
2019-04-30T12:23:16.477Z,14.87
2019-04-30T12:28:19.917Z,15.73
2019-04-30T12:33:23.318Z,16.43
2019-04-30T12:38:26.742Z,15.97
2019-04-30T12:43:30.155Z,17.50
2019-04-30T12:48:52.676Z,13.53
2019-04-30T12:54:00.546Z,15.53
2019-04-30T12:59:03.949Z,15.80
2019-04-30T13:04:09.645Z,12.97
2019-04-30T13:09:13.120Z,12.73
2019-04-30T13:14:19.548Z,12.37
2019-04-30T13:19:22.248Z,12.50
2019-04-30T13:24:25.748Z,13.30
2019-04-30T13:29:31.737Z,12.50
2019-04-30T13:34:51.596Z,9.87
2019-04-30T13:39:56.705Z,14.20
2019-04-30T13:45:00.095Z,12.60
2019-04-30T13:50:04.834Z,13.17
2019-04-30T13:55:10.751Z,8.63
2019-04-30T14:00:22.121Z,11.13
2019-04-30T14:05:25.753Z,12.87
2019-04-30T14:10:30.893Z,8.50
2019-04-30T14:15:34.381Z,11.13
2019-04-30T14:20:37.968Z,10.47
2019-04-30T14:25:41.362Z,13.23
2019-04-30T14:30:44.861Z,10.83
2019-04-30T14:35:49.762Z,10.17
2019-04-30T14:40:53.789Z,10.33
2019-04-30T14:46:15.555Z,11.83
2019-04-30T14:51:19.193Z,12.03
2019-04-30T14:56:26.967Z,41.27
2019-04-30T15:01:32.036Z,14.53
2019-04-30T15:06:35.457Z,14.07
2019-04-30T15:11:38.967Z,16.37
2019-04-30T15:16:42.371Z,12.53
2019-04-30T15:21:45.843Z,12.07
2019-04-30T15:26:57.687Z,10.60
2019-04-30T15:31:55.091Z,13.10
2019-04-30T15:36:59.137Z,11.10
2019-04-30T15:42:02.843Z,15.63
2019-04-30T15:47:06.634Z,12.13
2019-04-30T15:52:11.074Z,15.27
2019-04-30T15:57:14.528Z,15.10
2019-04-30T16:02:25.418Z,10.37
2019-04-30T16:07:29.541Z,13.27
2019-04-30T16:12:52.072Z,16.03
2019-04-30T16:17:59.822Z,10.70
2019-04-30T16:23:03.324Z,13.80
2019-04-30T16:28:08.546Z,14.57
2019-04-30T16:33:12.657Z,14.63
2019-04-30T16:38:16.050Z,14.57
2019-04-30T16:43:20.333Z,14.30
2019-04-30T16:48:23.896Z,17.90
2019-04-30T16:53:27.300Z,15.03
2019-04-30T16:58:32.342Z,15.30
2019-04-30T17:03:38.809Z,14.57
2019-04-30T17:08:49.329Z,14.00
2019-04-30T17:13:53.797Z,19.33
2019-04-30T17:18:59.081Z,14.90
2019-04-30T17:24:02.539Z,15.43
2019-04-30T17:29:06.006Z,18.03
2019-04-30T17:34:09.414Z,17.70
2019-04-30T17:39:14.543Z,16.80
2019-04-30T17:44:18.696Z,15.57
2019-04-30T17:49:22.154Z,19.13
2019-04-30T17:54:25.653Z,14.97
2019-04-30T17:59:29.072Z,16.30
2019-04-30T18:04:32.757Z,15.83
2019-04-30T18:09:36.188Z,18.30
2019-04-30T18:14:39.696Z,17.83
2019-04-30T18:19:44.751Z,19.53
2019-04-30T18:24:49.875Z,17.27
2019-04-30T18:29:53.306Z,16.90
2019-04-30T18:34:56.735Z,17.37
2019-04-30T18:40:00.245Z,16.10
2019-04-30T18:45:03.809Z,15.10
2019-04-30T18:50:09.323Z,14.37
2019-04-30T18:55:13.106Z,18.13
2019-04-30T19:00:19.759Z,16.37
2019-04-30T19:05:25.143Z,35.47
2019-04-30T19:10:46.327Z,21.90
2019-04-30T19:16:18.173Z,17.10
2019-04-30T19:21:00.547Z,19.67
2019-04-30T19:26:04.121Z,20.80
2019-04-30T19:31:09.176Z,15.70
2019-04-30T19:36:13.534Z,20.17
2019-04-30T19:41:18.577Z,19.87
2019-04-30T19:46:22.093Z,29.33
2019-04-30T19:51:25.530Z,19.17
2019-04-30T19:56:30.309Z,22.97
2019-04-30T20:01:34.103Z,22.47
2019-04-30T20:06:38.636Z,21.20
2019-04-30T20:11:42.638Z,20.37
2019-04-30T20:16:46.112Z,17.73
2019-04-30T20:21:53.621Z,19.27
2019-04-30T20:27:05.811Z,20.70
2019-04-30T20:31:59.901Z,21.73
2019-04-30T20:37:03.359Z,24.90
2019-04-30T20:42:06.772Z,25.07
2019-04-30T20:47:10.213Z,19.63
2019-04-30T20:52:13.621Z,24.47
2019-04-30T20:57:17.042Z,21.90
2019-04-30T21:02:20.610Z,24.47
2019-04-30T21:07:23.968Z,23.17
2019-04-30T21:12:28.825Z,25.10
2019-04-30T21:17:32.382Z,20.73
2019-04-30T21:22:35.799Z,20.43
2019-04-30T21:27:40.120Z,19.90
2019-04-30T21:32:59.240Z,22.60
2019-04-30T21:38:02.787Z,26.40
2019-04-30T21:43:06.212Z,22.83
2019-04-30T21:48:09.638Z,23.93
2019-04-30T21:53:13.054Z,22.50
2019-04-30T21:58:16.476Z,23.57
2019-04-30T22:03:19.886Z,20.30
2019-04-30T22:08:23.345Z,21.73
2019-04-30T22:13:26.746Z,23.90
2019-04-30T22:18:30.175Z,25.13
2019-04-30T22:23:33.615Z,24.70
2019-04-30T22:28:37.052Z,27.23
2019-04-30T22:33:40.530Z,26.67
2019-04-30T22:38:45.591Z,27.60
2019-04-30T22:43:50.169Z,26.13
2019-04-30T22:48:53.610Z,23.13
2019-04-30T22:53:57.028Z,25.70
2019-04-30T22:59:00.526Z,28.83
2019-04-30T23:04:05.641Z,25.50
2019-04-30T23:09:11.476Z,23.57
2019-04-30T23:14:14.955Z,27.17
2019-04-30T23:19:18.402Z,25.47
2019-04-30T23:24:21.840Z,36.00
2019-04-30T23:29:25.347Z,39.67
2019-04-30T23:34:28.781Z,29.53
2019-04-30T23:39:32.177Z,32.03
2019-04-30T23:44:35.652Z,34.07
2019-04-30T23:49:39.079Z,28.87
2019-04-30T23:54:42.561Z,32.80
2019-04-30T23:59:45.981Z,32.60
